createdAt,value
2022-09-07T00:01:18.952Z,70.98
2022-09-07T00:03:47.241Z,71.18
2022-09-07T00:06:15.493Z,71.23
2022-09-07T00:08:43.818Z,71.43
2022-09-07T00:11:18.525Z,71.37
2022-09-07T00:13:49.690Z,71.45
2022-09-07T00:16:26.393Z,71.47
2022-09-07T00:18:57.177Z,71.67
2022-09-07T00:21:26.583Z,71.76
2022-09-07T00:23:55.554Z,71.76
2022-09-07T00:26:30.472Z,71.95
2022-09-07T00:29:01.737Z,71.96
2022-09-07T00:31:31.689Z,72.02
2022-09-07T00:34:01.980Z,71.81
2022-09-07T00:36:30.825Z,71.74
2022-09-07T00:38:59.408Z,71.67
2022-09-07T00:41:27.657Z,71.72
2022-09-07T00:44:37.602Z,71.69
2022-09-07T00:47:13.952Z,71.71
2022-09-07T00:49:45.761Z,71.69
2022-09-07T00:52:16.227Z,71.71
2022-09-07T00:54:53.518Z,71.69
2022-09-07T00:57:22.430Z,71.77
2022-09-07T00:59:53.799Z,71.67
2022-09-07T01:02:22.521Z,71.72
2022-09-07T01:04:59.152Z,71.54
2022-09-07T01:07:27.375Z,71.55
2022-09-07T01:09:57.213Z,71.49
2022-09-07T01:12:25.543Z,71.43
2022-09-07T01:14:54.953Z,71.35
2022-09-07T01:17:51.547Z,71.49
2022-09-07T01:21:02.500Z,71.22
2022-09-07T01:24:09.927Z,71.30
2022-09-07T01:27:02.861Z,71.26
2022-09-07T01:29:39.752Z,71.37
2022-09-07T01:32:54.605Z,71.26
2022-09-07T01:36:01.625Z,71.39
2022-09-07T01:38:55.285Z,71.45
2022-09-07T01:42:13.525Z,71.54
2022-09-07T01:44:57.677Z,71.58
2022-09-07T01:47:47.535Z,71.52
2022-09-07T01:50:26.012Z,71.52
2022-09-07T01:53:21.400Z,71.60
2022-09-07T01:55:55.508Z,71.64
2022-09-07T01:58:35.184Z,71.63
2022-09-07T02:01:41.874Z,71.59
2022-09-07T02:04:35.372Z,71.59
2022-09-07T02:07:15.972Z,71.84
2022-09-07T02:09:54.613Z,71.81
2022-09-07T02:12:35.210Z,71.87
2022-09-07T02:15:12.227Z,71.84
2022-09-07T02:17:46.676Z,72.01
2022-09-07T02:20:24.037Z,71.97
2022-09-07T02:23:00.414Z,71.85
2022-09-07T02:26:07.359Z,71.87
2022-09-07T02:28:38.565Z,72.03
2022-09-07T02:31:08.395Z,72.41
2022-09-07T02:33:37.045Z,72.56
2022-09-07T02:36:06.460Z,72.79
2022-09-07T02:38:37.119Z,73.03
2022-09-07T02:41:06.575Z,72.96
2022-09-07T02:43:35.018Z,73.00
2022-09-07T02:46:37.639Z,73.16
2022-09-07T02:49:27.307Z,72.88
2022-09-07T02:52:12.616Z,73.20
2022-09-07T02:55:36.684Z,73.27
2022-09-07T02:58:14.752Z,73.56
2022-09-07T03:01:03.919Z,73.69
2022-09-07T03:03:54.795Z,73.86
2022-09-07T03:06:31.160Z,74.02
2022-09-07T03:09:06.605Z,74.10
2022-09-07T03:11:37.748Z,74.36
2022-09-07T03:14:16.256Z,74.68
2022-09-07T03:16:45.193Z,74.66
2022-09-07T03:19:13.425Z,74.84
2022-09-07T03:21:41.709Z,74.52
2022-09-07T03:24:10.134Z,74.77
2022-09-07T03:26:43.384Z,75.14
2022-09-07T03:29:11.700Z,75.01
2022-09-07T03:31:40.028Z,75.39
2022-09-07T03:34:09.135Z,75.46
2022-09-07T03:36:37.839Z,75.63
2022-09-07T03:39:07.447Z,75.93
2022-09-07T03:41:35.708Z,76.06
2022-09-07T03:44:05.728Z,76.22
2022-09-07T03:46:35.184Z,76.10
2022-09-07T03:49:03.439Z,76.47
2022-09-07T03:51:31.652Z,76.46
2022-09-07T03:54:00.410Z,76.54
2022-09-07T03:56:28.682Z,76.65
2022-09-07T03:58:56.960Z,76.74
2022-09-07T04:01:27.247Z,76.66
2022-09-07T04:04:02.221Z,76.59
2022-09-07T04:06:31.836Z,76.57
2022-09-07T04:09:10.696Z,76.41
2022-09-07T04:11:40.462Z,76.56
2022-09-07T04:14:10.545Z,76.55
2022-09-07T04:16:39.220Z,76.42
2022-09-07T04:19:07.475Z,76.53
2022-09-07T04:21:35.703Z,76.51
2022-09-07T04:24:04.292Z,76.47
2022-09-07T04:26:35.740Z,76.48
2022-09-07T04:29:06.468Z,76.52
2022-09-07T04:31:35.519Z,76.81
2022-09-07T04:34:05.665Z,76.90
2022-09-07T04:36:33.993Z,76.82
2022-09-07T04:39:05.685Z,76.71
2022-09-07T04:41:35.056Z,76.67
2022-09-07T04:44:05.184Z,76.79
2022-09-07T04:46:36.451Z,76.76
2022-09-07T04:49:09.387Z,76.61
2022-09-07T04:51:38.965Z,76.50
2022-09-07T04:54:07.376Z,76.36
2022-09-07T04:56:35.863Z,76.47
2022-09-07T04:59:04.651Z,76.35
2022-09-07T05:01:33.482Z,76.38
2022-09-07T05:04:03.009Z,76.42
2022-09-07T05:06:31.552Z,76.33
2022-09-07T05:09:00.140Z,76.25
2022-09-07T05:11:29.990Z,76.28
2022-09-07T05:14:01.250Z,76.13
2022-09-07T05:16:31.702Z,76.10
2022-09-07T05:19:02.620Z,76.22
2022-09-07T05:21:34.052Z,76.00
2022-09-07T05:24:04.359Z,76.01
2022-09-07T05:26:36.796Z,76.02
2022-09-07T05:31:56.077Z,75.82
2022-09-07T05:36:57.740Z,76.03
2022-09-07T05:39:26.755Z,75.91
2022-09-07T05:41:55.233Z,75.84
2022-09-07T05:47:12.009Z,75.70
2022-09-07T05:49:40.452Z,75.57
2022-09-07T05:52:08.797Z,75.53
2022-09-07T05:54:37.036Z,75.68
2022-09-07T05:57:07.284Z,75.52
2022-09-07T05:59:35.601Z,75.51
2022-09-07T06:02:04.096Z,75.40
2022-09-07T06:04:32.955Z,75.62
2022-09-07T06:12:37.961Z,75.63
2022-09-07T06:15:07.616Z,75.59
2022-09-07T06:17:35.847Z,75.64
2022-09-07T06:20:05.236Z,75.57
2022-09-07T06:22:38.085Z,75.76
2022-09-07T06:25:06.379Z,75.86
2022-09-07T06:27:35.072Z,75.82
2022-09-07T06:30:04.692Z,76.14
2022-09-07T06:32:44.853Z,76.21
2022-09-07T06:35:15.048Z,76.24
2022-09-07T06:37:44.140Z,76.36
2022-09-07T06:40:13.184Z,76.36
2022-09-07T06:42:41.612Z,76.46
2022-09-07T06:45:11.556Z,76.57
2022-09-07T06:47:40.899Z,76.86
2022-09-07T06:50:10.217Z,77.07
2022-09-07T06:55:28.542Z,77.74
2022-09-07T06:57:57.129Z,77.70
2022-09-07T07:00:25.678Z,78.26
2022-09-07T07:02:53.935Z,78.28
2022-09-07T07:05:22.230Z,78.67
2022-09-07T07:07:50.620Z,78.52
2022-09-07T07:10:23.733Z,78.79
2022-09-07T07:12:57.838Z,78.74
2022-09-07T07:15:28.855Z,78.86
2022-09-07T07:18:09.224Z,79.05
2022-09-07T07:20:46.261Z,78.81
2022-09-07T07:23:14.484Z,79.24
2022-09-07T07:25:42.784Z,79.38
2022-09-07T07:31:04.848Z,79.66
2022-09-07T07:33:38.808Z,80.10
2022-09-07T07:36:25.468Z,79.83
2022-09-07T07:38:59.963Z,79.64
2022-09-07T07:44:20.669Z,79.55
2022-09-07T07:46:51.358Z,80.00
2022-09-07T07:49:20.679Z,79.75
2022-09-07T07:54:37.284Z,79.61
2022-09-07T07:57:06.416Z,79.37
2022-09-07T07:59:35.864Z,79.06
2022-09-07T08:02:09.002Z,78.76
2022-09-07T08:04:37.411Z,78.89
2022-09-07T08:07:10.158Z,78.68
2022-09-07T08:09:46.096Z,78.54
2022-09-07T08:12:18.948Z,78.43
2022-09-07T08:14:48.565Z,78.19
2022-09-07T08:17:17.792Z,77.99
2022-09-07T08:19:45.968Z,77.67
2022-09-07T08:22:14.098Z,77.40
2022-09-07T08:24:42.320Z,77.02
2022-09-07T08:27:10.449Z,76.73
2022-09-07T08:29:38.810Z,76.35
2022-09-07T08:32:07.132Z,75.90
2022-09-07T08:34:37.308Z,75.98
2022-09-07T08:37:05.572Z,75.55
2022-09-07T08:39:33.815Z,75.60
2022-09-07T08:42:10.972Z,75.48
2022-09-07T08:44:49.080Z,75.67
2022-09-07T08:47:50.327Z,75.82
2022-09-07T08:50:53.800Z,75.92
2022-09-07T08:53:25.075Z,75.68
2022-09-07T08:56:02.697Z,75.78
2022-09-07T08:58:53.613Z,75.88
2022-09-07T09:01:42.283Z,76.04
2022-09-07T09:04:27.567Z,76.15
2022-09-07T09:07:05.617Z,76.00
2022-09-07T09:10:25.471Z,75.89
2022-09-07T09:13:24.200Z,76.08
2022-09-07T09:16:30.425Z,75.91
2022-09-07T09:19:13.232Z,75.91
2022-09-07T09:21:42.857Z,75.71
2022-09-07T09:24:17.118Z,75.65
2022-09-07T09:26:53.199Z,75.64
2022-09-07T09:29:23.318Z,75.37
2022-09-07T09:31:52.451Z,75.02
2022-09-07T09:34:24.046Z,75.02
2022-09-07T09:36:56.820Z,75.06
2022-09-07T09:39:34.662Z,74.94
2022-09-07T09:42:12.233Z,74.90
2022-09-07T09:44:42.262Z,74.81
2022-09-07T09:47:36.168Z,74.52
2022-09-07T09:53:25.616Z,74.17
2022-09-07T09:55:54.709Z,74.26
2022-09-07T10:01:33.601Z,74.04
2022-09-07T10:04:38.353Z,74.12
2022-09-07T10:07:30.308Z,74.20
2022-09-07T10:09:58.479Z,74.27
2022-09-07T10:12:37.351Z,74.65
2022-09-07T10:15:07.960Z,74.95
2022-09-07T10:17:43.308Z,74.91
2022-09-07T10:20:17.237Z,75.15
2022-09-07T10:22:51.677Z,74.88
2022-09-07T10:25:40.996Z,74.99
2022-09-07T10:28:10.188Z,75.02
2022-09-07T10:31:24.302Z,75.23
2022-09-07T10:34:31.247Z,75.36
2022-09-07T10:37:37.696Z,75.48
2022-09-07T10:40:24.194Z,75.64
2022-09-07T10:43:23.632Z,76.09
2022-09-07T10:49:33.805Z,75.92
2022-09-07T10:52:33.438Z,75.97
2022-09-07T10:55:10.663Z,75.71
2022-09-07T10:57:51.990Z,75.59
2022-09-07T11:00:22.592Z,75.53
2022-09-07T11:03:31.619Z,75.89
2022-09-07T11:06:09.147Z,75.56
2022-09-07T11:09:23.158Z,75.49
2022-09-07T11:12:15.329Z,75.07
2022-09-07T11:14:53.257Z,75.10
2022-09-07T11:17:27.763Z,75.01
2022-09-07T11:20:25.436Z,74.76
2022-09-07T11:23:17.337Z,74.27
2022-09-07T11:26:11.936Z,74.29
2022-09-07T11:29:31.877Z,74.55
2022-09-07T11:32:21.708Z,74.48
2022-09-07T11:35:17.776Z,74.55
2022-09-07T11:37:59.332Z,74.15
2022-09-07T11:40:37.297Z,73.78
2022-09-07T11:43:35.229Z,73.38
2022-09-07T11:46:15.262Z,73.16
2022-09-07T11:48:57.852Z,73.07
2022-09-07T11:51:56.039Z,72.79
2022-09-07T11:55:11.790Z,72.92
2022-09-07T11:57:55.486Z,72.82
2022-09-07T12:00:41.180Z,72.60
2022-09-07T12:03:56.548Z,72.73
2022-09-07T12:07:23.160Z,72.47
2022-09-07T12:09:57.001Z,72.19
2022-09-07T12:12:50.960Z,71.96
2022-09-07T12:15:34.099Z,71.70
2022-09-07T12:18:12.625Z,71.46
2022-09-07T12:20:46.126Z,71.51
2022-09-07T12:23:17.007Z,71.32
2022-09-07T12:25:51.491Z,71.15
2022-09-07T12:28:25.584Z,71.21
2022-09-07T12:31:05.844Z,70.95
2022-09-07T12:33:38.107Z,70.98
2022-09-07T12:36:28.084Z,70.91
2022-09-07T12:39:28.452Z,71.04
2022-09-07T12:45:28.707Z,70.89
2022-09-07T12:48:01.084Z,70.83
2022-09-07T12:50:42.260Z,71.07
2022-09-07T12:53:31.075Z,70.85
2022-09-07T12:56:17.435Z,70.82
2022-09-07T12:59:04.309Z,70.75
2022-09-07T13:01:44.369Z,70.74
2022-09-07T13:05:00.098Z,70.86
2022-09-07T13:08:06.952Z,70.96
2022-09-07T13:10:40.873Z,70.58
2022-09-07T13:13:15.369Z,70.81
2022-09-07T13:15:52.282Z,70.62
2022-09-07T13:18:27.070Z,70.69
2022-09-07T13:21:07.480Z,70.47
2022-09-07T13:23:45.505Z,70.45
2022-09-07T13:27:11.073Z,70.56
2022-09-07T13:29:55.968Z,70.40
2022-09-07T13:35:25.488Z,70.05
2022-09-07T13:38:02.884Z,70.01
2022-09-07T13:40:40.324Z,69.87
2022-09-07T13:43:19.206Z,69.67
2022-09-07T13:45:53.406Z,69.60
2022-09-07T13:48:31.222Z,69.78
2022-09-07T13:51:17.447Z,69.58
2022-09-07T13:54:06.480Z,69.48
2022-09-07T13:56:50.064Z,69.50
2022-09-07T13:59:26.712Z,69.38
2022-09-07T14:01:56.235Z,69.63
2022-09-07T14:04:49.159Z,69.74
2022-09-07T14:07:22.671Z,69.72
2022-09-07T14:10:25.535Z,69.67
2022-09-07T14:13:15.196Z,69.71
2022-09-07T14:15:47.363Z,69.60
2022-09-07T14:18:22.561Z,69.85
2022-09-07T14:20:53.710Z,70.03
2022-09-07T14:23:30.254Z,70.03
2022-09-07T14:26:17.814Z,70.16
2022-09-07T14:28:50.702Z,70.16
2022-09-07T14:31:21.726Z,69.93
2022-09-07T14:33:59.232Z,69.83
2022-09-07T14:36:45.234Z,69.89
2022-09-07T14:39:17.021Z,69.82
2022-09-07T14:41:46.041Z,69.61
2022-09-07T14:44:43.176Z,69.63
2022-09-07T14:47:29.705Z,69.75
2022-09-07T14:50:06.088Z,69.82
2022-09-07T14:52:43.392Z,69.81
2022-09-07T14:55:39.376Z,69.97
2022-09-07T14:58:13.237Z,69.96
2022-09-07T15:03:40.974Z,70.07
2022-09-07T15:07:01.035Z,70.15
2022-09-07T15:08:59.581Z,70.16
2022-09-07T15:11:34.349Z,70.40
2022-09-07T15:14:20.572Z,70.47
2022-09-07T15:19:50.787Z,70.79
2022-09-07T15:22:19.374Z,70.96
2022-09-07T15:24:49.111Z,71.06
2022-09-07T15:27:27.352Z,71.16
2022-09-07T15:29:55.813Z,71.33
2022-09-07T15:32:23.949Z,71.60
2022-09-07T15:34:52.112Z,71.60
2022-09-07T15:40:26.355Z,71.48
2022-09-07T15:43:11.460Z,71.58
2022-09-07T15:45:42.570Z,71.80
2022-09-07T15:48:15.678Z,71.68
2022-09-07T15:50:43.802Z,71.60
2022-09-07T15:56:03.181Z,71.84
2022-09-07T15:58:31.671Z,71.92
2022-09-07T16:03:55.482Z,71.51
2022-09-07T16:06:26.333Z,71.46
2022-09-07T16:08:55.316Z,71.45
2022-09-07T16:11:27.263Z,71.53
2022-09-07T16:14:03.511Z,71.51
2022-09-07T16:19:21.093Z,71.45
2022-09-07T16:21:49.480Z,71.25
2022-09-07T16:24:17.600Z,71.21
2022-09-07T16:26:45.758Z,71.25
2022-09-07T16:29:13.925Z,71.12
2022-09-07T16:32:43.956Z,71.08
2022-09-07T16:34:30.269Z,71.15
2022-09-07T16:36:58.406Z,71.05
2022-09-07T16:39:29.121Z,71.11
2022-09-07T16:41:57.480Z,71.13
2022-09-07T16:44:25.784Z,71.16
2022-09-07T16:46:54.704Z,71.06
2022-09-07T16:49:22.807Z,71.24
2022-09-07T16:51:50.904Z,71.23
2022-09-07T16:54:21.027Z,71.32
2022-09-07T16:56:49.361Z,71.32
2022-09-07T16:59:20.301Z,71.57
2022-09-07T17:01:48.411Z,71.59
2022-09-07T17:04:17.121Z,71.75
2022-09-07T17:06:45.952Z,71.84
2022-09-07T17:09:14.621Z,71.86
2022-09-07T17:11:42.764Z,71.96
2022-09-07T17:14:10.900Z,71.97
2022-09-07T17:16:41.425Z,72.16
2022-09-07T17:22:02.508Z,72.25
2022-09-07T17:24:32.203Z,72.34
2022-09-07T17:27:01.241Z,72.32
2022-09-07T17:29:37.172Z,72.44
2022-09-07T17:34:55.878Z,72.65
2022-09-07T17:37:24.167Z,72.72
2022-09-07T17:39:52.341Z,72.83
2022-09-07T17:42:20.822Z,72.99
2022-09-07T17:44:52.724Z,73.10
2022-09-07T17:47:21.508Z,73.06
2022-09-07T17:49:49.615Z,73.24
2022-09-07T17:52:17.745Z,73.31
2022-09-07T17:54:45.804Z,73.41
2022-09-07T17:57:13.964Z,73.65
2022-09-07T18:02:38.228Z,73.64
2022-09-07T18:05:07.289Z,73.85
2022-09-07T18:07:35.579Z,73.94
2022-09-07T18:10:03.920Z,73.98
2022-09-07T18:12:32.840Z,74.29
2022-09-07T18:15:01.468Z,74.50
2022-09-07T18:17:30.276Z,74.71
2022-09-07T18:19:58.356Z,74.88
2022-09-07T18:22:26.455Z,75.09
2022-09-07T18:24:54.545Z,75.30
2022-09-07T18:27:22.673Z,75.23
2022-09-07T18:29:50.741Z,75.38
2022-09-07T18:32:18.855Z,75.51
2022-09-07T18:34:50.386Z,75.72
2022-09-07T18:37:19.374Z,75.81
2022-09-07T18:39:48.703Z,75.95
2022-09-07T18:42:17.313Z,76.21
2022-09-07T18:47:35.223Z,76.30
2022-09-07T18:50:03.691Z,76.61
2022-09-07T18:55:19.941Z,76.87
2022-09-07T18:57:48.095Z,76.93
2022-09-07T19:00:17.651Z,77.00
2022-09-07T19:02:50.488Z,77.08
2022-09-07T19:08:08.627Z,76.86
2022-09-07T19:10:37.852Z,76.43
2022-09-07T19:13:05.926Z,76.41
2022-09-07T19:15:37.288Z,76.29
2022-09-07T19:18:07.974Z,76.25
2022-09-07T19:20:37.344Z,76.15
2022-09-07T19:23:06.872Z,76.24
2022-09-07T19:25:40.227Z,76.12
2022-09-07T19:28:08.471Z,75.93
2022-09-07T19:30:36.640Z,75.89
2022-09-07T19:33:08.025Z,75.88
2022-09-07T19:35:36.695Z,75.99
2022-09-07T19:38:05.120Z,75.86
2022-09-07T19:40:33.268Z,75.91
2022-09-07T19:43:01.483Z,75.72
2022-09-07T19:45:29.656Z,75.86
2022-09-07T19:47:58.143Z,75.88
2022-09-07T19:50:26.277Z,75.90
2022-09-07T19:52:54.449Z,75.92
2022-09-07T19:55:22.528Z,75.95
2022-09-07T19:57:52.081Z,75.99
2022-09-07T20:00:20.744Z,75.99
2022-09-07T20:02:50.326Z,76.09
2022-09-07T20:05:18.929Z,76.18
2022-09-07T20:07:47.109Z,76.20
2022-09-07T20:10:16.361Z,76.32
2022-09-07T20:12:44.910Z,76.19
2022-09-07T20:15:13.388Z,76.28
2022-09-07T20:17:41.473Z,76.29
2022-09-07T20:20:10.093Z,76.37
2022-09-07T20:22:38.370Z,76.32
2022-09-07T20:25:11.361Z,76.42
2022-09-07T20:27:41.702Z,76.40
2022-09-07T20:30:11.104Z,76.35
2022-09-07T20:32:39.353Z,76.38
2022-09-07T20:35:08.007Z,76.47
2022-09-07T20:37:36.122Z,76.45
2022-09-07T20:40:06.297Z,76.39
2022-09-07T20:42:34.643Z,76.47
2022-09-07T20:45:02.837Z,76.47
2022-09-07T20:47:31.352Z,76.45
2022-09-07T20:49:59.490Z,76.58
2022-09-07T20:52:27.579Z,76.56
2022-09-07T20:54:55.668Z,76.63
2022-09-07T20:57:23.867Z,76.62
2022-09-07T20:59:52.742Z,76.69
2022-09-07T21:02:21.060Z,76.82
2022-09-07T21:04:49.266Z,76.56
2022-09-07T21:07:17.775Z,76.64
2022-09-07T21:09:45.969Z,76.67
2022-09-07T21:12:14.108Z,76.75
2022-09-07T21:14:42.217Z,76.81
2022-09-07T21:17:10.349Z,76.71
2022-09-07T21:19:38.416Z,76.91
2022-09-07T21:22:06.552Z,77.19
2022-09-07T21:24:34.643Z,77.28
2022-09-07T21:27:02.741Z,77.33
2022-09-07T21:29:30.941Z,77.40
2022-09-07T21:31:59.018Z,77.25
2022-09-07T21:34:27.137Z,77.43
2022-09-07T21:36:55.260Z,77.74
2022-09-07T21:39:23.409Z,77.92
2022-09-07T21:41:51.512Z,78.04
2022-09-07T21:44:20.420Z,78.04
2022-09-07T21:46:48.668Z,77.97
2022-09-07T21:49:17.163Z,78.13
2022-09-07T21:51:45.239Z,78.09
2022-09-07T21:54:13.324Z,78.22
2022-09-07T21:56:46.340Z,78.24
2022-09-07T21:59:14.919Z,78.42
2022-09-07T22:01:43.111Z,78.49
2022-09-07T22:04:12.150Z,78.75
2022-09-07T22:06:41.148Z,78.71
2022-09-07T22:09:09.402Z,78.95
2022-09-07T22:11:37.594Z,78.82
2022-09-07T22:14:06.307Z,78.91
2022-09-07T22:16:35.838Z,79.00
2022-09-07T22:19:06.628Z,79.24
2022-09-07T22:21:34.735Z,79.25
2022-09-07T22:24:06.241Z,79.32
2022-09-07T22:26:39.786Z,79.50
2022-09-07T22:29:11.765Z,79.30
2022-09-07T22:31:41.685Z,79.40
2022-09-07T22:34:11.076Z,79.59
2022-09-07T22:36:44.716Z,79.59
2022-09-07T22:39:18.989Z,79.70
2022-09-07T22:41:47.751Z,79.86
2022-09-07T22:44:18.528Z,80.07
2022-09-07T22:46:48.180Z,80.02
2022-09-07T22:49:17.387Z,80.14
2022-09-07T22:51:45.937Z,80.21
2022-09-07T22:54:14.221Z,80.05
2022-09-07T22:56:42.530Z,80.02
2022-09-07T22:59:12.997Z,80.10
2022-09-07T23:01:41.801Z,80.02
2022-09-07T23:04:12.680Z,80.09
2022-09-07T23:06:43.394Z,80.06
2022-09-07T23:09:15.808Z,79.98
2022-09-07T23:11:45.778Z,79.93
2022-09-07T23:14:20.696Z,79.91
2022-09-07T23:16:49.436Z,79.73
2022-09-07T23:19:19.746Z,79.75
2022-09-07T23:21:48.044Z,79.65
2022-09-07T23:24:18.309Z,79.69
2022-09-07T23:26:47.059Z,79.50
2022-09-07T23:29:16.166Z,79.43
2022-09-07T23:31:47.052Z,79.52
2022-09-07T23:34:15.362Z,79.41
2022-09-07T23:36:43.435Z,79.40
2022-09-07T23:39:13.957Z,79.36
2022-09-07T23:41:42.073Z,79.29
2022-09-07T23:44:10.215Z,79.16
2022-09-07T23:46:38.406Z,79.12
2022-09-07T23:49:06.492Z,79.12
2022-09-07T23:51:34.928Z,79.01
2022-09-07T23:54:03.050Z,79.04
2022-09-07T23:56:32.740Z,79.05
2022-09-07T23:59:01.100Z,78.99
